createdAt,value
2019-05-07T00:01:55.172Z,5.03
2019-05-07T00:04:26.943Z,4.17
2019-05-07T00:06:58.306Z,4.67
2019-05-07T00:09:32.141Z,5.08
2019-05-07T00:12:05.061Z,5.25
2019-05-07T00:14:35.987Z,4.90
2019-05-07T00:17:09.019Z,5.20
2019-05-07T00:19:40.374Z,4.92
2019-05-07T00:22:12.570Z,5.12
2019-05-07T00:24:44.252Z,5.00
2019-05-07T00:27:15.605Z,4.95
2019-05-07T00:29:47.036Z,5.15
2019-05-07T00:32:18.421Z,5.17
2019-05-07T00:35:06.650Z,5.35
2019-05-07T00:37:40.050Z,4.85
2019-05-07T00:40:13.609Z,4.92
2019-05-07T00:43:02.967Z,5.00
2019-05-07T00:45:35.979Z,5.55
2019-05-07T00:48:07.271Z,6.25
2019-05-07T00:50:42.035Z,5.05
2019-05-07T00:53:13.427Z,5.87
2019-05-07T00:55:44.720Z,5.42
2019-05-07T00:58:16.065Z,5.70
2019-05-07T01:00:47.463Z,5.40
2019-05-07T01:03:18.787Z,5.87
2019-05-07T01:05:52.496Z,5.10
2019-05-07T01:08:23.788Z,5.53
2019-05-07T01:10:55.061Z,5.17
2019-05-07T01:13:26.445Z,5.47
2019-05-07T01:15:57.897Z,5.40
2019-05-07T01:18:29.275Z,5.60
2019-05-07T01:21:02.387Z,5.53
2019-05-07T01:23:34.880Z,7.30
2019-05-07T01:26:06.533Z,8.70
2019-05-07T01:28:55.581Z,7.30
2019-05-07T01:31:33.039Z,6.65
2019-05-07T01:34:14.986Z,7.10
2019-05-07T01:36:46.318Z,7.00
2019-05-07T01:39:23.009Z,5.35
2019-05-07T01:41:53.659Z,5.83
2019-05-07T01:44:25.911Z,6.10
2019-05-07T01:46:57.348Z,6.37
2019-05-07T01:49:28.706Z,6.80
2019-05-07T01:52:02.301Z,6.37
2019-05-07T01:54:33.509Z,6.22
2019-05-07T01:57:04.886Z,6.60
2019-05-07T01:59:36.142Z,6.62
2019-05-07T02:02:14.851Z,6.75
2019-05-07T02:04:47.840Z,6.85
2019-05-07T02:07:22.591Z,6.35
2019-05-07T02:10:03.963Z,6.12
2019-05-07T02:12:36.959Z,5.85
2019-05-07T02:15:09.413Z,5.80
2019-05-07T02:17:43.011Z,5.33
2019-05-07T02:20:14.187Z,5.00
2019-05-07T02:22:45.457Z,5.30
2019-05-07T02:25:16.728Z,5.17
2019-05-07T02:27:47.986Z,5.00
2019-05-07T02:30:19.235Z,5.47
2019-05-07T02:32:53.682Z,8.93
2019-05-07T02:35:23.847Z,9.98
2019-05-07T02:38:05.975Z,7.67
2019-05-07T02:40:43.314Z,7.67
2019-05-07T02:43:14.847Z,7.80
2019-05-07T02:46:17.499Z,6.72
2019-05-07T02:48:53.642Z,6.10
2019-05-07T02:51:35.840Z,5.92
2019-05-07T02:54:25.865Z,5.17
2019-05-07T02:56:57.169Z,6.35
2019-05-07T02:59:29.376Z,6.30
2019-05-07T03:02:03.355Z,6.75
2019-05-07T03:04:33.654Z,6.97
2019-05-07T03:07:05.278Z,7.55
2019-05-07T03:09:36.697Z,7.62
2019-05-07T03:12:08.944Z,7.83
2019-05-07T03:14:43.559Z,7.75
2019-05-07T03:17:13.750Z,7.37
2019-05-07T03:19:46.736Z,7.58
2019-05-07T03:22:17.981Z,7.28
2019-05-07T03:24:57.153Z,7.70
2019-05-07T03:27:28.430Z,9.00
2019-05-07T03:30:04.411Z,8.05
2019-05-07T03:32:38.704Z,8.90
2019-05-07T03:35:28.140Z,8.75
2019-05-07T03:38:03.078Z,8.18
2019-05-07T03:40:34.443Z,8.68
2019-05-07T03:43:06.492Z,8.23
2019-05-07T03:45:56.147Z,7.92
2019-05-07T03:48:29.133Z,6.92
2019-05-07T03:51:03.401Z,7.47
2019-05-07T03:53:34.096Z,6.85
2019-05-07T03:56:05.723Z,5.80
2019-05-07T03:58:37.040Z,5.80
2019-05-07T04:01:08.370Z,5.45
2019-05-07T04:03:39.656Z,5.00
2019-05-07T04:06:12.800Z,5.08
2019-05-07T04:08:44.015Z,6.22
2019-05-07T04:11:15.342Z,5.72
2019-05-07T04:13:46.601Z,6.28
2019-05-07T04:16:17.930Z,5.45
2019-05-07T04:18:49.201Z,6.15
2019-05-07T04:21:22.984Z,6.80
2019-05-07T04:23:55.205Z,7.33
2019-05-07T04:26:44.733Z,6.50
2019-05-07T04:29:17.737Z,6.47
2019-05-07T04:31:49.122Z,6.50
2019-05-07T04:34:24.982Z,6.58
2019-05-07T04:36:56.420Z,6.20
2019-05-07T04:39:27.839Z,5.60
2019-05-07T04:41:59.301Z,5.83
2019-05-07T04:44:33.183Z,5.92
2019-05-07T04:47:04.645Z,5.78
2019-05-07T04:49:36.986Z,6.03
2019-05-07T04:52:12.480Z,6.37
2019-05-07T04:54:43.827Z,6.08
2019-05-07T04:57:27.598Z,6.65
2019-05-07T05:00:02.584Z,6.30
2019-05-07T05:02:34.206Z,5.97
2019-05-07T05:05:05.845Z,5.85
2019-05-07T05:07:37.217Z,5.50
2019-05-07T05:10:08.876Z,5.50
2019-05-07T05:12:42.674Z,5.37
2019-05-07T05:15:13.260Z,5.00
2019-05-07T05:17:50.455Z,5.53
2019-05-07T05:20:22.071Z,4.78
2019-05-07T05:23:07.110Z,5.90
2019-05-07T05:25:43.230Z,5.85
2019-05-07T05:28:15.719Z,5.67
2019-05-07T05:30:48.674Z,5.40
2019-05-07T05:33:20.026Z,5.37
2019-05-07T05:35:52.537Z,5.30
2019-05-07T05:38:23.973Z,5.10
2019-05-07T05:40:55.317Z,5.80
2019-05-07T05:43:31.922Z,5.72
2019-05-07T05:46:05.133Z,5.83
2019-05-07T05:48:36.537Z,5.87
2019-05-07T05:51:12.447Z,5.87
2019-05-07T05:53:52.423Z,6.20
2019-05-07T05:56:28.509Z,5.95
2019-05-07T05:59:07.284Z,6.20
2019-05-07T06:01:56.685Z,5.87
2019-05-07T06:04:32.929Z,5.53
2019-05-07T06:07:13.938Z,5.50
2019-05-07T06:09:43.697Z,5.87
2019-05-07T06:12:25.786Z,5.30
2019-05-07T06:14:58.931Z,5.72
2019-05-07T06:17:48.406Z,6.55
2019-05-07T06:20:36.591Z,5.17
2019-05-07T06:23:22.620Z,4.85
2019-05-07T06:25:55.072Z,4.50
2019-05-07T06:28:26.333Z,5.08
2019-05-07T06:30:57.620Z,4.35
2019-05-07T06:33:29.056Z,5.28
2019-05-07T06:36:02.674Z,4.17
2019-05-07T06:38:35.128Z,4.97
2019-05-07T06:41:08.088Z,4.70
2019-05-07T06:43:42.154Z,4.50
2019-05-07T06:46:13.612Z,4.78
2019-05-07T06:48:46.187Z,4.85
2019-05-07T06:51:17.903Z,5.28
2019-05-07T06:53:49.308Z,4.97
2019-05-07T06:56:22.899Z,4.78
2019-05-07T06:59:02.208Z,5.28
2019-05-07T07:01:52.984Z,5.28
2019-05-07T07:04:26.089Z,5.25
2019-05-07T07:06:58.988Z,5.12
2019-05-07T07:09:37.837Z,6.25
2019-05-07T07:12:21.923Z,5.15
2019-05-07T07:14:52.737Z,5.40
2019-05-07T07:17:25.147Z,5.20
2019-05-07T07:19:56.431Z,5.12
2019-05-07T07:22:27.784Z,4.80
2019-05-07T07:24:59.059Z,4.80
2019-05-07T07:27:32.206Z,5.60
2019-05-07T07:30:06.127Z,5.53
2019-05-07T07:32:39.112Z,4.90
2019-05-07T07:35:12.975Z,5.25
2019-05-07T07:37:44.430Z,4.70
2019-05-07T07:40:18.121Z,4.92
2019-05-07T07:42:52.043Z,4.55
2019-05-07T07:45:23.633Z,4.10
2019-05-07T07:47:54.987Z,4.47
2019-05-07T07:50:26.303Z,4.40
2019-05-07T07:52:57.644Z,4.35
2019-05-07T07:55:32.908Z,9.15
2019-05-07T07:58:05.252Z,4.67
2019-05-07T08:00:38.177Z,4.67
2019-05-07T08:03:13.214Z,3.22
2019-05-07T08:05:44.041Z,3.90
2019-05-07T08:08:15.395Z,3.75
2019-05-07T08:10:46.750Z,3.80
2019-05-07T08:13:18.999Z,3.65
2019-05-07T08:15:51.916Z,3.25
2019-05-07T08:18:23.411Z,3.83
2019-05-07T08:20:54.817Z,3.55
2019-05-07T08:23:26.174Z,3.65
2019-05-07T08:25:57.470Z,4.30
2019-05-07T08:28:28.725Z,3.70
2019-05-07T08:31:04.662Z,3.55
2019-05-07T08:33:43.530Z,5.42
2019-05-07T08:36:16.457Z,3.95
2019-05-07T08:38:52.943Z,4.35
2019-05-07T08:41:26.605Z,5.62
2019-05-07T08:44:10.651Z,4.03
2019-05-07T08:49:15.238Z,3.87
2019-05-07T08:51:48.266Z,3.60
2019-05-07T08:54:19.518Z,3.98
2019-05-07T08:56:52.759Z,4.28
2019-05-07T08:59:24.250Z,4.20
2019-05-07T09:01:55.612Z,3.77
2019-05-07T09:04:26.959Z,3.77
2019-05-07T09:06:58.329Z,3.60
2019-05-07T09:09:29.596Z,3.60
2019-05-07T09:12:02.995Z,5.70
2019-05-07T09:14:33.909Z,3.37
2019-05-07T09:17:05.280Z,3.92
2019-05-07T09:19:48.309Z,4.08
2019-05-07T09:22:12.701Z,4.70
2019-05-07T09:24:44.158Z,4.80
2019-05-07T09:27:17.231Z,4.55
2019-05-07T09:29:52.856Z,4.00
2019-05-07T09:32:35.076Z,4.15
2019-05-07T09:35:13.970Z,4.10
2019-05-07T09:37:45.238Z,5.55
2019-05-07T09:40:16.541Z,4.50
2019-05-07T09:42:47.919Z,4.78
2019-05-07T09:45:19.258Z,6.05
2019-05-07T09:47:52.220Z,4.50
2019-05-07T09:50:23.832Z,4.28
2019-05-07T09:52:55.273Z,4.90
2019-05-07T09:55:26.602Z,4.22
2019-05-07T09:57:57.934Z,4.90
2019-05-07T10:00:32.006Z,4.62
2019-05-07T10:03:03.334Z,4.87
2019-05-07T10:05:34.678Z,3.85
2019-05-07T10:08:06.114Z,4.72
2019-05-07T10:10:37.686Z,4.10
2019-05-07T10:13:12.224Z,4.30
2019-05-07T10:15:43.724Z,4.20
2019-05-07T10:18:16.429Z,4.75
2019-05-07T10:20:47.892Z,3.72
2019-05-07T10:23:23.083Z,4.22
2019-05-07T10:25:55.239Z,3.77
2019-05-07T10:28:28.209Z,4.35
2019-05-07T10:30:59.584Z,4.65
2019-05-07T10:33:31.961Z,4.35
2019-05-07T10:36:05.423Z,4.10
2019-05-07T10:38:36.805Z,5.20
2019-05-07T10:41:08.190Z,4.60
2019-05-07T10:43:39.815Z,6.60
2019-05-07T10:46:12.954Z,5.83
2019-05-07T10:48:47.203Z,5.53
2019-05-07T10:51:18.601Z,4.95
2019-05-07T10:53:51.803Z,5.53
2019-05-07T10:56:24.282Z,6.03
2019-05-07T10:58:55.893Z,5.28
2019-05-07T11:01:37.975Z,4.58
2019-05-07T11:04:09.264Z,5.08
2019-05-07T11:06:48.856Z,4.92
2019-05-07T11:09:30.289Z,4.97
2019-05-07T11:12:02.557Z,5.22
2019-05-07T11:14:34.118Z,4.83
2019-05-07T11:17:23.189Z,4.40
2019-05-07T11:19:54.558Z,5.37
2019-05-07T11:22:26.731Z,4.80
2019-05-07T11:24:58.111Z,4.75
2019-05-07T11:27:32.834Z,4.65
2019-05-07T11:30:04.747Z,3.87
2019-05-07T11:32:36.173Z,4.25
2019-05-07T11:35:08.327Z,5.20
2019-05-07T11:37:39.707Z,4.50
2019-05-07T11:40:13.106Z,4.22
2019-05-07T11:43:02.477Z,4.42
2019-05-07T11:45:47.936Z,4.55
2019-05-07T11:48:22.128Z,4.35
2019-05-07T11:51:07.674Z,4.60
2019-05-07T11:53:41.889Z,4.83
2019-05-07T11:56:14.636Z,8.45
2019-05-07T11:58:46.065Z,11.25
2019-05-07T12:01:19.414Z,6.75
2019-05-07T12:03:52.046Z,7.75
2019-05-07T12:06:24.499Z,6.10
2019-05-07T12:08:55.836Z,6.87
2019-05-07T12:11:27.267Z,6.65
2019-05-07T12:13:58.692Z,8.08
2019-05-07T12:16:32.120Z,7.25
2019-05-07T12:19:03.225Z,8.40
2019-05-07T12:21:35.317Z,8.28
2019-05-07T12:24:06.897Z,6.85
2019-05-07T12:26:41.712Z,5.62
2019-05-07T12:29:13.191Z,6.55
2019-05-07T12:31:46.260Z,7.40
2019-05-07T12:34:19.277Z,6.20
2019-05-07T12:36:52.414Z,6.70
2019-05-07T12:39:23.964Z,6.78
2019-05-07T12:41:55.354Z,6.22
2019-05-07T12:44:26.871Z,7.05
2019-05-07T12:46:58.318Z,7.58
2019-05-07T12:49:29.790Z,7.20
2019-05-07T12:52:09.897Z,8.23
2019-05-07T12:54:45.593Z,7.08
2019-05-07T12:57:16.978Z,7.30
2019-05-07T12:59:49.679Z,6.30
2019-05-07T13:02:37.084Z,7.22
2019-05-07T13:04:58.036Z,7.00
2019-05-07T13:07:32.417Z,6.50
2019-05-07T13:10:08.234Z,6.70
2019-05-07T13:12:39.189Z,6.28
2019-05-07T13:15:24.389Z,7.15
2019-05-07T13:17:43.936Z,5.72
2019-05-07T13:20:15.678Z,5.95
2019-05-07T13:22:47.078Z,5.20
2019-05-07T13:25:18.744Z,5.37
2019-05-07T13:27:52.110Z,5.45
2019-05-07T13:30:24.281Z,5.42
2019-05-07T13:32:56.890Z,6.60
2019-05-07T13:35:28.333Z,6.28
2019-05-07T13:38:04.288Z,4.90
2019-05-07T13:40:37.436Z,5.17
2019-05-07T13:43:23.081Z,5.55
2019-05-07T13:45:56.211Z,6.20
2019-05-07T13:48:28.767Z,9.30
2019-05-07T13:51:01.790Z,7.80
2019-05-07T13:53:33.213Z,7.17
2019-05-07T13:56:04.897Z,7.45
2019-05-07T13:58:36.298Z,6.42
2019-05-07T14:01:12.247Z,6.33
2019-05-07T14:03:43.622Z,6.47
2019-05-07T14:06:16.746Z,6.47
2019-05-07T14:08:48.125Z,6.35
2019-05-07T14:11:22.342Z,7.78
2019-05-07T14:13:53.404Z,6.40
2019-05-07T14:16:24.729Z,6.83
2019-05-07T14:18:56.107Z,6.60
2019-05-07T14:21:27.529Z,6.95
2019-05-07T14:23:58.904Z,7.03
2019-05-07T14:26:32.441Z,6.30
2019-05-07T14:29:03.270Z,7.35
2019-05-07T14:31:34.672Z,6.40
2019-05-07T14:34:12.507Z,6.55
2019-05-07T14:36:45.470Z,7.28
2019-05-07T14:39:16.935Z,6.62
2019-05-07T14:41:51.925Z,6.45
2019-05-07T14:44:23.276Z,7.25
2019-05-07T14:46:54.624Z,7.72
2019-05-07T14:49:26.015Z,8.30
2019-05-07T14:51:57.357Z,7.87
2019-05-07T14:54:28.638Z,7.50
2019-05-07T14:57:02.160Z,8.13
2019-05-07T14:59:33.194Z,8.40
2019-05-07T15:02:04.948Z,7.37
2019-05-07T15:04:36.296Z,7.72
2019-05-07T15:07:07.921Z,6.70
2019-05-07T15:09:42.463Z,5.42
2019-05-07T15:12:15.532Z,5.92
2019-05-07T15:14:47.023Z,5.72
2019-05-07T15:17:26.000Z,5.37
2019-05-07T15:19:57.401Z,5.10
2019-05-07T15:22:47.173Z,5.97
2019-05-07T15:25:13.616Z,7.33
2019-05-07T15:27:46.439Z,7.15
2019-05-07T15:30:18.210Z,6.47
2019-05-07T15:32:49.619Z,6.72
2019-05-07T15:35:20.954Z,7.05
2019-05-07T15:37:52.281Z,6.65
2019-05-07T15:40:23.850Z,7.05
2019-05-07T15:42:55.144Z,6.17
2019-05-07T15:45:26.404Z,6.10
2019-05-07T15:47:58.734Z,6.03
2019-05-07T15:50:32.057Z,7.55
2019-05-07T15:53:04.902Z,7.60
2019-05-07T15:55:36.242Z,7.90
2019-05-07T15:58:07.600Z,9.00
2019-05-07T16:00:39.198Z,9.30
2019-05-07T16:03:12.320Z,10.75
2019-05-07T16:05:43.841Z,13.68
2019-05-07T16:08:16.650Z,10.78
2019-05-07T16:10:48.178Z,10.85
2019-05-07T16:13:22.371Z,7.12
2019-05-07T16:15:54.976Z,7.33
2019-05-07T16:18:32.666Z,7.15
2019-05-07T16:21:05.217Z,7.15
2019-05-07T16:23:36.618Z,8.13
2019-05-07T16:26:07.916Z,7.62
2019-05-07T16:28:39.253Z,7.75
2019-05-07T16:31:10.522Z,8.58
2019-05-07T16:33:43.078Z,8.40
2019-05-07T16:36:14.368Z,8.75
2019-05-07T16:38:47.545Z,8.63
2019-05-07T16:41:18.830Z,8.38
2019-05-07T16:43:52.281Z,9.03
2019-05-07T16:46:23.247Z,8.43
2019-05-07T16:48:54.656Z,7.67
2019-05-07T16:51:26.027Z,9.05
2019-05-07T16:53:57.454Z,8.93
2019-05-07T16:56:29.056Z,8.08
2019-05-07T16:59:02.067Z,9.08
2019-05-07T17:01:33.426Z,8.23
2019-05-07T17:04:05.402Z,10.30
2019-05-07T17:06:36.904Z,9.88
2019-05-07T17:09:09.900Z,8.65
2019-05-07T17:11:43.463Z,7.25
2019-05-07T17:14:14.196Z,8.38
2019-05-07T17:16:47.320Z,7.40
2019-05-07T17:19:18.762Z,7.28
2019-05-07T17:21:51.958Z,8.15
2019-05-07T17:24:23.278Z,8.45
2019-05-07T17:26:54.644Z,8.90
2019-05-07T17:29:25.976Z,8.90
2019-05-07T17:31:57.255Z,8.80
2019-05-07T17:34:28.566Z,8.83
2019-05-07T17:37:01.988Z,7.95
2019-05-07T17:39:33.105Z,8.10
2019-05-07T17:42:04.466Z,7.33
2019-05-07T17:44:37.873Z,7.20
2019-05-07T17:47:09.220Z,7.65
2019-05-07T17:49:41.806Z,8.33
2019-05-07T17:52:14.072Z,7.03
2019-05-07T17:54:45.925Z,8.43
2019-05-07T17:57:18.896Z,8.03
2019-05-07T17:59:52.492Z,8.28
2019-05-07T18:02:25.248Z,9.30
2019-05-07T18:04:56.677Z,9.63
2019-05-07T18:07:28.028Z,11.15
2019-05-07T18:09:59.516Z,10.85
2019-05-07T18:12:32.019Z,12.40
2019-05-07T18:15:04.848Z,11.22
2019-05-07T18:17:43.672Z,11.43
2019-05-07T18:20:15.251Z,12.37
2019-05-07T18:22:46.670Z,16.23
2019-05-07T18:25:18.229Z,14.33
2019-05-07T18:27:49.611Z,13.35
2019-05-07T18:30:23.529Z,14.43
2019-05-07T18:33:02.415Z,16.40
2019-05-07T18:35:34.085Z,15.23
2019-05-07T18:38:05.538Z,16.05
2019-05-07T18:40:38.595Z,16.73
2019-05-07T18:43:12.080Z,17.10
2019-05-07T18:45:43.256Z,17.40
2019-05-07T18:48:14.642Z,18.12
2019-05-07T18:50:46.317Z,17.67
2019-05-07T18:53:18.036Z,18.32
2019-05-07T18:55:51.601Z,22.27
2019-05-07T18:58:22.797Z,20.70
2019-05-07T19:01:07.964Z,19.67
2019-05-07T19:03:39.433Z,19.37
2019-05-07T19:06:13.515Z,19.07
2019-05-07T19:08:44.590Z,17.80
2019-05-07T19:11:16.118Z,18.75
2019-05-07T19:13:47.684Z,19.05
2019-05-07T19:16:19.213Z,20.05
2019-05-07T19:18:50.617Z,18.80
2019-05-07T19:21:22.478Z,18.65
2019-05-07T19:23:54.186Z,17.45
2019-05-07T19:26:25.637Z,19.27
2019-05-07T19:28:57.134Z,18.40
2019-05-07T19:31:28.732Z,19.42
2019-05-07T19:34:00.289Z,17.15
2019-05-07T19:36:32.243Z,17.27
2019-05-07T19:39:05.350Z,17.42
2019-05-07T19:41:37.233Z,16.77
2019-05-07T19:44:09.716Z,16.60
2019-05-07T19:46:41.142Z,17.65
2019-05-07T19:49:12.612Z,16.90
2019-05-07T19:51:44.109Z,16.17
2019-05-07T19:54:15.583Z,16.20
2019-05-07T19:56:47.098Z,16.57
2019-05-07T19:59:18.706Z,16.93
2019-05-07T20:01:51.913Z,17.00
2019-05-07T20:04:23.349Z,17.23
2019-05-07T20:06:54.840Z,16.82
2019-05-07T20:09:28.551Z,16.10
2019-05-07T20:12:00.043Z,15.78
2019-05-07T20:14:33.065Z,16.48
2019-05-07T20:17:05.104Z,16.75
2019-05-07T20:19:37.043Z,19.00
2019-05-07T20:22:08.982Z,18.37
2019-05-07T20:24:41.797Z,22.02
2019-05-07T20:27:13.582Z,24.43
2019-05-07T20:29:45.115Z,37.35
2019-05-07T20:32:16.802Z,26.95
2019-05-07T20:34:48.429Z,27.87
2019-05-07T20:37:21.523Z,26.23
2019-05-07T20:39:53.222Z,16.70
2019-05-07T20:42:26.319Z,26.17
2019-05-07T20:44:59.930Z,27.82
2019-05-07T20:47:32.539Z,29.72
2019-05-07T20:50:06.676Z,32.15
2019-05-07T20:52:38.268Z,32.40
2019-05-07T20:55:27.965Z,29.42
2019-05-07T20:57:51.052Z,29.25
2019-05-07T21:00:25.015Z,27.22
2019-05-07T21:03:14.891Z,29.20
2019-05-07T21:05:46.328Z,28.32
2019-05-07T21:08:18.867Z,29.27
2019-05-07T21:10:50.244Z,28.20
2019-05-07T21:13:28.482Z,26.37
2019-05-07T21:15:55.084Z,24.92
2019-05-07T21:18:26.647Z,26.12
2019-05-07T21:20:58.113Z,25.52
2019-05-07T21:23:29.621Z,24.50
2019-05-07T21:26:02.187Z,22.90
2019-05-07T21:28:33.926Z,22.70
2019-05-07T21:31:05.289Z,23.35
2019-05-07T21:33:37.599Z,26.45
2019-05-07T21:36:09.136Z,29.75
2019-05-07T21:38:42.548Z,31.95
2019-05-07T21:41:13.839Z,30.90
2019-05-07T21:43:46.612Z,28.75
2019-05-07T21:46:17.976Z,28.38
2019-05-07T21:48:51.777Z,29.52
2019-05-07T21:51:23.697Z,31.45
2019-05-07T21:53:59.854Z,29.65
2019-05-07T21:56:32.955Z,28.10
2019-05-07T21:59:06.046Z,28.23
2019-05-07T22:01:43.403Z,27.98
2019-05-07T22:06:45.578Z,16.20
2019-05-07T22:09:17.578Z,14.87
2019-05-07T22:11:49.024Z,14.58
2019-05-07T22:14:22.317Z,14.95
2019-05-07T22:16:54.640Z,15.45
2019-05-07T22:19:26.278Z,14.53
2019-05-07T22:21:57.676Z,13.45
2019-05-07T22:24:29.191Z,12.07
2019-05-07T22:27:01.739Z,11.75
2019-05-07T22:29:33.752Z,12.70
2019-05-07T22:32:12.650Z,11.90
2019-05-07T22:34:51.851Z,12.88
2019-05-07T22:37:26.215Z,11.95
2019-05-07T22:40:07.010Z,10.78
2019-05-07T22:42:39.467Z,10.70
2019-05-07T22:45:12.128Z,10.60
2019-05-07T22:47:43.875Z,10.43
2019-05-07T22:50:15.495Z,10.63
2019-05-07T22:52:46.959Z,9.58
2019-05-07T22:55:18.372Z,10.50
2019-05-07T22:57:54.391Z,10.58
2019-05-07T23:00:32.123Z,10.03
2019-05-07T23:03:03.716Z,9.98
2019-05-07T23:05:35.226Z,9.95
2019-05-07T23:08:06.679Z,9.80
2019-05-07T23:10:38.105Z,9.50
2019-05-07T23:13:09.413Z,10.38
2019-05-07T23:15:42.919Z,8.80
2019-05-07T23:18:14.132Z,9.75
2019-05-07T23:20:45.570Z,13.72
2019-05-07T23:23:16.965Z,17.52
2019-05-07T23:25:48.456Z,16.57
2019-05-07T23:28:19.968Z,16.87
2019-05-07T23:30:51.933Z,20.30
2019-05-07T23:33:23.497Z,16.95
2019-05-07T23:35:55.042Z,15.23
2019-05-07T23:38:26.555Z,13.13
2019-05-07T23:41:08.449Z,12.00
2019-05-07T23:43:40.015Z,11.25
2019-05-07T23:46:12.835Z,11.12
2019-05-07T23:48:44.450Z,11.65
2019-05-07T23:51:15.984Z,11.20
2019-05-07T23:53:47.384Z,13.53
2019-05-07T23:56:18.928Z,12.15
2019-05-07T23:58:52.445Z,14.15
